Time;durP1;ratioP1;P1;durP2;ratioP2;P2;SDS_P1;SDS_P2;PMS_P1;PMS_P2;Temp;Humidity;BMP_temperature;BMP_pressure;BME280_temperature;BME280_humidity;BME280_pressure;Samples;Min_cycle;Max_cycle;Signal;HPM_P1;HPM_P2
2022/09/10 00:00:42;;;;;;;15.52;8.30;;;16.00;99.90;;;;;;5070013;28;20021;-54
2022/09/10 00:03:09;;;;;;;16.48;7.10;;;16.00;99.90;;;;;;5070186;28;20036;-53
2022/09/10 00:05:43;;;;;;;11.80;6.57;;;16.00;99.90;;;;;;5070621;28;20036;-53
2022/09/10 00:08:09;;;;;;;11.90;7.05;;;16.00;99.90;;;;;;5070427;28;20479;-53
2022/09/10 00:10:46;;;;;;;8.98;6.50;;;16.10;99.90;;;;;;5070225;28;20035;-54
2022/09/10 00:13:14;;;;;;;11.57;6.63;;;16.10;99.90;;;;;;5068930;28;20111;-56
2022/09/10 00:15:46;;;;;;;14.23;6.10;;;16.00;99.90;;;;;;5070200;28;20025;-55
2022/09/10 00:18:14;;;;;;;13.02;7.03;;;16.00;99.90;;;;;;5070046;28;20039;-53
2022/09/10 00:20:51;;;;;;;11.57;5.60;;;16.10;99.90;;;;;;5070145;28;20020;-53
2022/09/10 00:23:20;;;;;;;11.18;6.22;;;16.10;99.90;;;;;;5070063;28;20041;-53
2022/09/10 00:25:46;;;;;;;11.73;6.75;;;16.10;99.90;;;;;;5070043;28;20028;-53
2022/09/10 00:28:13;;;;;;;11.32;6.15;;;16.20;99.90;;;;;;5069721;28;20154;-53
2022/09/10 00:30:43;;;;;;;12.63;6.82;;;16.10;99.90;;;;;;5069591;28;20052;-53
2022/09/10 00:33:09;;;;;;;11.68;5.65;;;16.10;99.90;;;;;;5069877;28;20074;-53
2022/09/10 00:35:36;;;;;;;9.07;6.28;;;16.20;99.90;;;;;;5069741;28;20021;-53
2022/09/10 00:38:03;;;;;;;12.88;6.40;;;16.20;99.90;;;;;;5051554;28;20029;-53
2022/09/10 00:40:29;;;;;;;11.93;7.20;;;16.20;99.90;;;;;;5069358;28;20037;-53
2022/09/10 00:42:55;;;;;;;11.85;6.22;;;16.20;99.90;;;;;;5069669;28;20376;-53
2022/09/10 00:45:29;;;;;;;13.02;6.90;;;16.20;99.90;;;;;;5069284;28;20111;-53
2022/09/10 00:48:03;;;;;;;11.50;7.22;;;16.30;99.90;;;;;;5068283;28;20067;-53
2022/09/10 00:50:33;;;;;;;12.65;6.90;;;16.30;99.90;;;;;;5069527;28;20085;-54
2022/09/10 00:53:04;;;;;;;9.98;5.93;;;16.30;99.90;;;;;;5069760;28;20043;-53
2022/09/10 00:55:34;;;;;;;7.75;4.55;;;16.30;99.90;;;;;;5069615;28;20111;-53
2022/09/10 00:58:05;;;;;;;15.63;5.30;;;16.30;99.90;;;;;;5071416;28;20533;-53
2022/09/10 01:00:31;;;;;;;9.35;4.28;;;16.30;99.90;;;;;;5073609;28;20078;-53
2022/09/10 01:02:58;;;;;;;12.55;5.25;;;16.30;99.90;;;;;;5055367;28;20039;-53
2022/09/10 01:05:25;;;;;;;10.00;5.50;;;16.30;99.90;;;;;;5072282;28;20495;-53
2022/09/10 01:07:56;;;;;;;9.88;4.82;;;16.20;99.90;;;;;;5073581;28;20054;-53
2022/09/10 01:10:28;;;;;;;7.75;4.55;;;16.20;99.90;;;;;;5073284;28;20021;-53
2022/09/10 01:13:30;;;;;;;7.75;4.75;;;16.20;99.90;;;;;;5072952;28;20044;-53
2022/09/10 01:16:33;;;;;;;10.10;4.50;;;16.20;99.90;;;;;;5073416;28;20020;-54
2022/09/10 01:19:27;;;;;;;6.93;4.32;;;16.20;99.90;;;;;;5072909;28;20086;-53
2022/09/10 01:22:21;;;;;;;6.63;3.53;;;16.20;99.90;;;;;;5073169;28;20025;-53
2022/09/10 01:25:01;;;;;;;7.15;3.72;;;16.20;99.90;;;;;;5073363;28;20020;-53
2022/09/10 01:27:52;;;;;;;6.38;3.30;;;16.10;99.90;;;;;;5073170;28;20047;-53
2022/09/10 01:30:27;;;;;;;6.63;3.10;;;16.20;99.90;;;;;;5072603;28;20732;-53
2022/09/10 01:33:10;;;;;;;5.18;2.97;;;16.10;99.90;;;;;;5070997;28;20037;-53
2022/09/10 01:35:43;;;;;;;6.00;2.92;;;16.10;99.90;;;;;;5073279;28;20025;-53
2022/09/10 01:38:21;;;;;;;5.78;2.53;;;16.10;99.90;;;;;;5073142;28;20106;-53
2022/09/10 01:40:48;;;;;;;4.90;2.63;;;16.10;99.90;;;;;;5054880;28;20036;-53
2022/09/10 01:43:14;;;;;;;3.42;2.22;;;16.10;99.90;;;;;;5072994;28;20103;-52
2022/09/10 01:46:08;;;;;;;7.22;3.65;;;16.00;99.90;;;;;;5072827;28;20529;-53
2022/09/10 01:48:59;;;;;;;6.50;2.67;;;16.00;99.90;;;;;;5063235;28;20131;-53
2022/09/10 01:51:40;;;;;;;5.72;2.53;;;16.00;99.90;;;;;;5072812;28;20024;-53
2022/09/10 01:54:25;;;;;;;5.80;2.83;;;16.10;99.90;;;;;;5072665;28;20502;-53
2022/09/10 01:57:02;;;;;;;7.00;2.78;;;16.10;99.90;;;;;;5072656;28;20064;-52
2022/09/10 02:00:00;;;;;;;6.35;2.88;;;16.10;99.90;;;;;;5054396;28;20033;-53
2022/09/10 02:02:39;;;;;;;5.13;2.70;;;16.10;99.90;;;;;;5027806;28;20039;-53
2022/09/10 02:05:07;;;;;;;7.68;2.35;;;16.00;99.90;;;;;;5056296;28;20028;-53
2022/09/10 02:07:35;;;;;;;6.10;2.10;;;15.90;99.90;;;;;;5072328;28;20112;-53
2022/09/10 02:10:03;;;;;;;3.88;1.73;;;15.80;99.90;;;;;;5072003;28;20074;-52
2022/09/10 02:12:28;;;;;;;2.75;1.60;;;15.80;99.90;;;;;;5072331;28;20116;-52
2022/09/10 02:14:56;;;;;;;2.75;1.17;;;15.80;99.90;;;;;;5072377;28;20471;-53
2022/09/10 02:17:32;;;;;;;3.65;1.48;;;15.80;99.90;;;;;;5072250;28;20105;-53
2022/09/10 02:20:00;;;;;;;3.47;1.40;;;15.70;99.90;;;;;;5072255;28;20211;-53
2022/09/10 02:22:30;;;;;;;3.75;1.75;;;15.80;99.90;;;;;;5072192;28;20103;-54
2022/09/10 02:24:56;;;;;;;2.33;1.17;;;15.80;99.90;;;;;;5072333;28;20037;-53
2022/09/10 02:27:22;;;;;;;4.13;1.63;;;15.90;99.90;;;;;;5054129;28;20176;-52
2022/09/10 02:29:48;;;;;;;4.20;1.55;;;15.90;99.90;;;;;;5072029;28;20044;-53
2022/09/10 02:32:14;;;;;;;2.30;1.30;;;15.80;99.90;;;;;;5072240;28;20403;-52
2022/09/10 02:34:40;;;;;;;3.50;1.30;;;15.70;99.90;;;;;;5054120;28;20021;-53
2022/09/10 02:37:06;;;;;;;5.85;1.73;;;15.80;99.90;;;;;;5072161;28;20539;-53
2022/09/10 02:39:31;;;;;;;1.98;1.38;;;15.80;99.90;;;;;;5071702;28;20466;-52
2022/09/10 02:41:57;;;;;;;5.60;1.23;;;15.80;99.90;;;;;;5054165;28;20028;-53
2022/09/10 02:44:23;;;;;;;8.00;1.65;;;15.80;99.90;;;;;;5071804;28;20380;-53
2022/09/10 02:46:49;;;;;;;3.10;1.23;;;15.90;99.90;;;;;;5071880;28;20025;-52
2022/09/10 02:49:15;;;;;;;5.32;1.60;;;15.90;99.90;;;;;;5071693;28;20422;-53
2022/09/10 02:51:41;;;;;;;3.30;1.40;;;15.90;99.90;;;;;;5071677;28;20537;-53
2022/09/10 02:54:07;;;;;;;4.43;1.50;;;15.90;99.90;;;;;;5071710;28;20020;-52
2022/09/10 02:56:33;;;;;;;2.70;1.10;;;15.90;99.90;;;;;;5053537;28;20388;-53
2022/09/10 02:58:59;;;;;;;4.78;1.40;;;15.80;99.90;;;;;;5071363;28;20040;-53
2022/09/10 03:01:25;;;;;;;6.07;1.33;;;15.70;99.90;;;;;;5071678;28;20047;-53
2022/09/10 03:03:53;;;;;;;3.28;1.42;;;15.70;99.90;;;;;;5071374;28;20455;-53
2022/09/10 03:06:20;;;;;;;3.17;1.30;;;15.70;99.90;;;;;;5071586;28;20021;-52
2022/09/10 03:08:47;;;;;;;4.27;1.40;;;15.70;99.90;;;;;;5053143;28;20024;-53
2022/09/10 03:11:15;;;;;;;2.40;1.17;;;15.70;99.90;;;;;;5052728;28;20036;-53
2022/09/10 03:13:42;;;;;;;3.22;1.60;;;15.70;99.90;;;;;;5071424;28;20040;-52
2022/09/10 03:16:09;;;;;;;10.02;1.80;;;15.80;99.90;;;;;;5071342;28;20028;-52
2022/09/10 03:18:35;;;;;;;5.38;1.60;;;15.80;99.90;;;;;;5071273;28;20045;-53
2022/09/10 03:21:19;;;;;;;2.55;1.10;;;15.80;99.90;;;;;;5052506;28;20028;-53
2022/09/10 03:23:48;;;;;;;5.60;1.52;;;15.90;99.90;;;;;;5071404;28;20379;-53
2022/09/10 03:26:15;;;;;;;4.20;1.50;;;15.90;99.90;;;;;;5071669;28;20044;-53
2022/09/10 03:28:42;;;;;;;1.55;1.15;;;15.90;99.90;;;;;;5069570;28;20024;-52
2022/09/10 03:31:08;;;;;;;3.45;1.40;;;15.80;99.90;;;;;;5070999;28;20611;-53
2022/09/10 03:33:34;;;;;;;5.30;1.30;;;15.90;99.90;;;;;;5070990;28;20114;-53
2022/09/10 03:36:01;;;;;;;5.72;1.50;;;15.90;99.90;;;;;;5070842;28;20021;-53
2022/09/10 03:38:28;;;;;;;3.40;1.52;;;15.80;99.90;;;;;;5070735;28;20029;-52
2022/09/10 03:40:54;;;;;;;;;;;15.70;99.90;;;;;;5071375;28;20028;-53
2022/09/10 03:43:21;;;;;;;2.75;1.70;;;15.70;99.90;;;;;;5070804;28;19940;-53
2022/09/10 03:45:50;;;;;;;5.00;1.45;;;15.70;99.90;;;;;;5070247;28;20574;-53
2022/09/10 03:48:20;;;;;;;3.08;1.30;;;15.70;99.90;;;;;;5052662;28;20109;-53
2022/09/10 03:50:46;;;;;;;4.13;1.33;;;15.60;99.90;;;;;;5052400;28;20052;-53
2022/09/10 03:53:13;;;;;;;3.63;1.37;;;15.60;99.90;;;;;;5052506;28;20023;-53
2022/09/10 03:55:42;;;;;;;4.50;1.58;;;15.60;99.90;;;;;;5052247;28;20020;-52
2022/09/10 03:58:08;;;;;;;4.13;1.50;;;15.70;99.90;;;;;;5070242;28;20414;-53
2022/09/10 04:00:35;;;;;;;5.38;1.80;;;15.70;99.90;;;;;;5070648;28;20529;-52
2022/09/10 04:03:01;;;;;;;2.37;1.27;;;15.70;99.90;;;;;;5069035;28;20070;-53
2022/09/10 04:05:28;;;;;;;2.80;1.95;;;15.60;99.90;;;;;;5070222;28;20274;-52
2022/09/10 04:07:57;;;;;;;3.15;1.60;;;15.60;99.90;;;;;;5070336;28;20024;-52
2022/09/10 04:10:27;;;;;;;3.17;1.52;;;15.60;99.90;;;;;;5070416;28;20056;-52
2022/09/10 04:12:52;;;;;;;4.70;1.80;;;15.50;99.90;;;;;;5070228;28;20098;-52
2022/09/10 04:15:20;;;;;;;4.82;1.80;;;15.60;99.90;;;;;;5070172;28;20068;-52
2022/09/10 04:17:50;;;;;;;7.72;1.55;;;15.40;99.90;;;;;;5070181;28;20124;-52
2022/09/10 04:20:19;;;;;;;5.50;1.60;;;15.30;99.90;;;;;;5070041;28;20056;-52
2022/09/10 04:22:46;;;;;;;5.18;1.58;;;15.30;99.90;;;;;;5051866;28;20021;-52
2022/09/10 04:25:12;;;;;;;4.15;1.90;;;15.40;99.90;;;;;;5070461;28;20024;-52
2022/09/10 04:27:38;;;;;;;9.55;1.90;;;15.40;99.90;;;;;;5069699;28;20036;-52
2022/09/10 04:30:05;;;;;;;3.80;1.80;;;15.40;99.90;;;;;;5051514;28;20052;-52
2022/09/10 04:32:30;;;;;;;5.88;1.73;;;15.30;99.90;;;;;;5069040;28;20028;-52
2022/09/10 04:34:56;;;;;;;4.88;1.90;;;15.30;99.90;;;;;;5069630;28;20471;-53
2022/09/10 04:37:21;;;;;;;2.08;1.58;;;15.40;99.90;;;;;;5051959;28;20035;-53
2022/09/10 04:39:47;;;;;;;4.55;1.83;;;15.40;99.90;;;;;;5069921;28;20483;-52
2022/09/10 04:42:14;;;;;;;3.67;1.98;;;15.40;99.90;;;;;;5069949;28;20052;-52
2022/09/10 04:44:39;;;;;;;6.95;2.08;;;15.40;99.90;;;;;;5069669;28;20040;-52
2022/09/10 04:47:05;;;;;;;5.30;1.65;;;15.50;99.90;;;;;;5069784;28;20059;-52
2022/09/10 04:49:31;;;;;;;2.95;1.98;;;15.50;99.90;;;;;;5069467;28;20075;-52
2022/09/10 04:51:56;;;;;;;3.97;2.20;;;15.40;99.90;;;;;;5051564;28;20403;-53
2022/09/10 04:54:22;;;;;;;3.03;2.22;;;15.50;99.90;;;;;;5051465;28;20024;-53
2022/09/10 04:56:50;;;;;;;3.58;1.60;;;15.40;99.90;;;;;;5069712;28;20028;-52
2022/09/10 04:59:15;;;;;;;3.00;2.10;;;15.50;99.90;;;;;;5069249;28;20055;-53
2022/09/10 05:01:41;;;;;;;4.57;1.88;;;15.50;99.90;;;;;;5051637;28;20028;-52
2022/09/10 05:04:07;;;;;;;3.00;1.95;;;15.50;99.90;;;;;;5069510;28;20659;-53
2022/09/10 05:06:32;;;;;;;3.20;2.17;;;15.50;99.90;;;;;;5068796;28;20426;-53
2022/09/10 05:08:58;;;;;;;4.82;2.10;;;15.40;99.90;;;;;;5049836;28;20494;-52
2022/09/10 05:11:24;;;;;;;6.50;2.47;;;15.50;99.90;;;;;;5067593;28;20033;-52
2022/09/10 05:13:50;;;;;;;5.53;2.25;;;15.50;99.90;;;;;;5068704;28;20025;-53
2022/09/10 05:16:15;;;;;;;4.90;2.53;;;15.50;99.90;;;;;;5050174;28;20032;-52
2022/09/10 05:18:41;;;;;;;2.63;1.60;;;15.50;99.90;;;;;;5068367;28;20047;-52
2022/09/10 05:21:07;;;;;;;3.97;2.45;;;15.50;99.90;;;;;;5069622;28;20375;-53
2022/09/10 05:23:32;;;;;;;4.93;2.15;;;15.50;99.90;;;;;;5067775;28;20539;-52
2022/09/10 05:25:58;;;;;;;6.85;2.88;;;15.50;99.90;;;;;;5069284;28;20174;-52
2022/09/10 05:28:24;;;;;;;3.22;2.15;;;15.50;99.90;;;;;;5069065;28;20036;-52
2022/09/10 05:30:50;;;;;;;4.80;2.67;;;15.50;99.90;;;;;;5069118;28;20055;-53
2022/09/10 05:33:16;;;;;;;5.78;2.15;;;15.60;99.90;;;;;;5069005;28;20094;-53
2022/09/10 05:35:41;;;;;;;9.02;2.17;;;15.50;99.90;;;;;;5069265;28;20028;-53
2022/09/10 05:38:10;;;;;;;6.55;2.63;;;15.50;99.90;;;;;;5069010;28;20075;-52
2022/09/10 05:40:36;;;;;;;5.90;2.42;;;15.50;99.90;;;;;;5068773;28;20468;-53
2022/09/10 05:43:02;;;;;;;6.60;2.13;;;15.60;99.90;;;;;;5051133;28;20055;-53
2022/09/10 05:45:28;;;;;;;4.55;2.67;;;15.60;99.90;;;;;;5072869;28;20264;-53
2022/09/10 05:47:54;;;;;;;4.55;2.20;;;15.70;99.90;;;;;;5072916;28;20031;-53
2022/09/10 05:50:20;;;;;;;4.88;2.40;;;15.70;99.90;;;;;;5072598;28;20123;-53
2022/09/10 05:52:46;;;;;;;6.38;2.38;;;15.80;99.90;;;;;;5072633;28;20070;-52
2022/09/10 05:55:11;;;;;;;3.53;2.38;;;15.80;99.90;;;;;;5072538;28;20125;-52
2022/09/10 05:57:39;;;;;;;2.92;2.30;;;15.80;99.90;;;;;;5072485;28;20688;-53
2022/09/10 06:00:07;;;;;;;5.10;2.65;;;15.80;99.90;;;;;;5072477;28;20059;-52
2022/09/10 06:02:33;;;;;;;5.97;2.95;;;15.60;99.90;;;;;;5072494;28;20070;-52
2022/09/10 06:04:59;;;;;;;4.13;2.92;;;15.60;99.90;;;;;;5072451;28;20044;-52
2022/09/10 06:07:30;;;;;;;3.55;2.67;;;15.60;99.90;;;;;;5072306;28;20071;-52
2022/09/10 06:10:01;;;;;;;5.97;2.97;;;15.50;99.90;;;;;;5072435;28;20024;-52
2022/09/10 06:12:27;;;;;;;8.13;3.92;;;15.40;99.90;;;;;;5072148;28;20412;-52
2022/09/10 06:14:53;;;;;;;7.22;3.33;;;15.30;99.90;;;;;;5071008;28;20039;-52
2022/09/10 06:17:18;;;;;;;5.07;3.00;;;15.30;99.90;;;;;;5060507;28;20028;-51
2022/09/10 06:19:45;;;;;;;6.57;3.83;;;15.30;99.90;;;;;;5060476;28;20041;-52
2022/09/10 06:22:13;;;;;;;6.38;3.75;;;15.40;99.90;;;;;;5062101;28;20751;-53
2022/09/10 06:24:39;;;;;;;7.93;3.92;;;15.50;99.90;;;;;;5058963;28;20021;-53
2022/09/10 06:27:05;;;;;;;5.05;2.72;;;15.60;99.90;;;;;;5060363;28;20494;-52
2022/09/10 06:29:32;;;;;;;5.13;3.60;;;15.60;99.90;;;;;;5059162;28;20047;-52
2022/09/10 06:31:58;;;;;;;9.15;4.30;;;15.70;99.90;;;;;;5062037;28;20502;-52
2022/09/10 06:34:24;;;;;;;5.93;3.60;;;15.70;99.90;;;;;;5062332;28;20029;-53
2022/09/10 06:36:51;;;;;;;7.78;4.25;;;15.80;99.90;;;;;;5060072;28;20025;-53
2022/09/10 06:39:16;;;;;;;8.60;4.80;;;15.80;99.90;;;;;;5051678;28;20120;-53
2022/09/10 06:41:42;;;;;;;8.43;4.20;;;15.80;99.90;;;;;;5033656;28;20117;-52
2022/09/10 06:44:09;;;;;;;6.97;4.43;;;15.80;99.90;;;;;;5051749;28;20025;-53
2022/09/10 06:46:35;;;;;;;8.63;5.10;;;15.80;99.90;;;;;;5051796;28;20057;-53
2022/09/10 06:49:03;;;;;;;14.38;6.15;;;15.80;99.90;;;;;;5051700;28;20029;-52
2022/09/10 06:51:29;;;;;;;8.10;6.22;;;15.80;99.90;;;;;;5051595;28;20029;-53
2022/09/10 06:53:56;;;;;;;11.82;6.63;;;15.90;99.90;;;;;;5051700;28;20467;-53
2022/09/10 06:56:22;;;;;;;8.48;6.50;;;15.90;99.90;;;;;;5050733;28;20024;-53
2022/09/10 06:58:48;;;;;;;13.13;7.18;;;15.90;99.90;;;;;;5051572;28;20533;-52
2022/09/10 07:01:16;;;;;;;10.23;7.32;;;15.90;99.90;;;;;;5050876;28;20052;-53
2022/09/10 07:03:42;;;;;;;9.48;7.15;;;15.90;99.90;;;;;;5051429;28;20036;-53
2022/09/10 07:06:12;;;;;;;10.73;8.10;;;15.80;99.90;;;;;;5060147;28;20024;-53
2022/09/10 07:08:38;;;;;;;10.07;6.78;;;15.70;99.90;;;;;;5071086;28;20025;-52
2022/09/10 07:11:06;;;;;;;13.38;8.95;;;15.70;99.90;;;;;;5071246;28;20025;-53
2022/09/10 07:13:33;;;;;;;14.23;9.95;;;15.80;99.90;;;;;;5070965;28;20032;-53
2022/09/10 07:16:00;;;;;;;14.02;11.00;;;15.90;99.90;;;;;;5060174;28;20025;-52
2022/09/10 07:18:27;;;;;;;14.15;10.13;;;15.90;99.90;;;;;;5050133;28;20044;-53
2022/09/10 07:20:53;;;;;;;13.93;9.98;;;15.90;99.90;;;;;;5048082;28;20028;-52
2022/09/10 07:23:21;;;;;;;13.32;10.23;;;16.00;99.90;;;;;;5050330;28;20040;-53
2022/09/10 07:25:47;;;;;;;15.50;12.00;;;16.10;99.90;;;;;;5050225;28;20110;-53
2022/09/10 07:28:15;;;;;;;14.93;11.48;;;16.10;99.90;;;;;;5050480;28;20161;-53
2022/09/10 07:30:42;;;;;;;21.33;13.40;;;16.10;99.90;;;;;;5049824;28;20086;-53
2022/09/10 07:33:10;;;;;;;22.83;15.05;;;16.20;99.90;;;;;;5050287;28;20029;-52
2022/09/10 07:35:36;;;;;;;;;;;16.30;99.90;;;;;;5052977;28;20546;-52
2022/09/10 07:38:03;;;;;;;20.20;14.60;;;16.30;99.90;;;;;;5039462;28;20596;-53
2022/09/10 07:40:29;;;;;;;15.68;12.60;;;16.40;99.90;;;;;;5041256;28;20544;-52
2022/09/10 07:42:55;;;;;;;17.70;13.93;;;16.30;99.90;;;;;;5039799;28;20100;-52
2022/09/10 07:45:21;;;;;;;16.77;12.55;;;16.30;99.90;;;;;;5039581;28;20033;-52
2022/09/10 07:47:48;;;;;;;17.05;13.43;;;16.30;99.90;;;;;;5041055;28;20056;-52
2022/09/10 07:50:13;;;;;;;17.42;13.38;;;16.50;99.90;;;;;;5039525;28;20541;-52
2022/09/10 07:52:40;;;;;;;18.95;15.13;;;16.50;99.90;;;;;;5031712;28;20160;-52
2022/09/10 07:55:07;;;;;;;19.50;14.95;;;16.50;99.90;;;;;;5050067;28;20021;-53
2022/09/10 07:57:36;;;;;;;18.33;13.82;;;16.60;99.90;;;;;;5049292;28;20028;-52
2022/09/10 08:00:13;;;;;;;16.92;13.45;;;16.60;99.90;;;;;;5050292;28;20519;-52
2022/09/10 08:02:42;;;;;;;17.92;13.27;;;16.70;99.90;;;;;;5048800;28;20029;-52
2022/09/10 08:05:09;;;;;;;18.52;13.50;;;16.60;99.90;;;;;;5050319;28;20051;-53
2022/09/10 08:07:39;;;;;;;15.68;13.35;;;16.60;99.90;;;;;;5050354;28;20130;-53
2022/09/10 08:10:08;;;;;;;17.15;14.00;;;16.70;99.90;;;;;;5050067;28;20040;-53
2022/09/10 08:12:35;;;;;;;19.25;14.77;;;16.80;99.90;;;;;;5062491;28;20450;-52
2022/09/10 08:15:00;;;;;;;16.98;14.13;;;16.90;99.90;;;;;;5051242;28;20028;-53
2022/09/10 08:17:29;;;;;;;18.50;13.35;;;17.00;99.90;;;;;;5052696;28;20064;-53
2022/09/10 08:19:55;;;;;;;17.95;14.07;;;17.10;99.90;;;;;;5049638;28;20045;-53
2022/09/10 08:22:20;;;;;;;18.63;15.10;;;17.10;99.90;;;;;;5049850;28;20056;-53
2022/09/10 08:24:49;;;;;;;15.30;12.25;;;17.20;99.90;;;;;;5050074;28;20036;-53
2022/09/10 08:27:16;;;;;;;16.92;14.13;;;17.30;99.90;;;;;;5048225;28;20068;-53
2022/09/10 08:29:42;;;;;;;16.25;13.25;;;17.30;99.90;;;;;;5049714;28;20083;-53
2022/09/10 08:32:09;;;;;;;17.38;14.38;;;17.40;99.90;;;;;;5049382;28;20052;-53
2022/09/10 08:34:35;;;;;;;18.87;13.57;;;17.30;99.90;;;;;;5049740;28;20025;-53
2022/09/10 08:37:02;;;;;;;19.33;13.15;;;17.40;99.90;;;;;;5049427;28;20294;-53
2022/09/10 08:39:29;;;;;;;18.20;15.05;;;17.60;99.90;;;;;;5048230;28;20045;-53
2022/09/10 08:42:00;;;;;;;21.88;15.50;;;17.70;99.90;;;;;;5048349;28;20017;-53
2022/09/10 08:44:35;;;;;;;17.73;14.38;;;17.80;99.90;;;;;;5048219;28;20025;-53
2022/09/10 08:47:21;;;;;;;15.38;12.48;;;17.90;99.90;;;;;;5047741;28;20064;-54
2022/09/10 08:50:01;;;;;;;16.33;11.93;;;17.80;99.90;;;;;;5030680;28;20135;-53
2022/09/10 08:52:38;;;;;;;16.65;12.00;;;17.70;99.90;;;;;;5049368;28;20033;-53
2022/09/10 08:55:11;;;;;;;16.10;11.87;;;17.90;99.90;;;;;;5053782;28;20029;-53
2022/09/10 08:58:03;;;;;;;13.63;11.02;;;17.90;99.90;;;;;;5066885;28;20032;-53
2022/09/10 09:00:35;;;;;;;15.15;11.00;;;17.90;99.90;;;;;;5052453;28;20407;-53
2022/09/10 09:03:21;;;;;;;13.88;9.90;;;18.10;99.90;;;;;;5062831;28;20032;-53
2022/09/10 09:05:54;;;;;;;13.40;10.32;;;18.20;99.90;;;;;;5053782;28;20202;-53
2022/09/10 09:08:24;;;;;;;11.70;9.27;;;18.40;99.90;;;;;;5063770;28;20037;-53
2022/09/10 09:11:18;;;;;;;10.20;8.43;;;18.50;99.90;;;;;;5058662;28;20472;-53
2022/09/10 09:14:14;;;;;;;12.25;10.18;;;18.60;99.90;;;;;;5053881;28;20115;-54
2022/09/10 09:17:00;;;;;;;12.52;10.02;;;18.60;99.90;;;;;;5040478;28;20056;-53
2022/09/10 09:19:39;;;;;;;11.27;9.07;;;18.50;99.90;;;;;;5049152;28;20029;-53
2022/09/10 09:22:18;;;;;;;12.88;10.15;;;18.70;99.90;;;;;;5049052;28;20049;-53
2022/09/10 09:24:56;;;;;;;12.02;9.90;;;18.60;99.90;;;;;;5049737;28;20079;-53
2022/09/10 09:27:26;;;;;;;12.75;9.80;;;18.70;99.90;;;;;;5049669;28;20119;-52
2022/09/10 09:30:00;;;;;;;14.35;10.27;;;18.70;99.90;;;;;;5047719;28;20128;-54
2022/09/10 09:32:31;;;;;;;15.70;12.23;;;18.80;99.90;;;;;;5031553;28;20159;-53
2022/09/10 09:35:16;;;;;;;18.15;15.68;;;18.80;99.90;;;;;;5048921;28;20032;-53
2022/09/10 09:37:49;;;;;;;26.80;22.25;;;19.00;99.90;;;;;;5036377;28;20052;-53
2022/09/10 09:40:36;;;;;;;28.10;23.45;;;19.00;99.90;;;;;;5049627;28;20041;-52
2022/09/10 09:43:12;;;;;;;43.67;35.03;;;19.10;99.90;;;;;;5051900;28;20017;-53
2022/09/10 09:45:44;;;;;;;45.10;35.78;;;19.10;99.90;;;;;;5044317;28;20029;-51
2022/09/10 09:48:13;;;;;;;47.42;38.28;;;19.20;99.90;;;;;;5050977;28;20465;-52
2022/09/10 09:50:42;;;;;;;37.97;32.35;;;19.10;99.90;;;;;;5057290;28;20040;-52
2022/09/10 09:53:21;;;;;;;39.45;33.38;;;19.20;99.90;;;;;;5057464;28;20017;-52
2022/09/10 09:55:56;;;;;;;44.63;35.28;;;19.30;99.90;;;;;;5058102;28;20474;-52
2022/09/10 09:58:28;;;;;;;40.47;33.17;;;19.50;99.90;;;;;;5043867;28;20033;-52
2022/09/10 10:01:03;;;;;;;44.35;35.30;;;19.80;99.90;;;;;;5058479;28;20017;-53
2022/09/10 10:03:53;;;;;;;40.13;31.48;;;20.10;99.90;;;;;;5047566;28;20025;-53
2022/09/10 10:06:43;;;;;;;34.08;28.33;;;20.30;99.90;;;;;;5049539;28;20117;-53
2022/09/10 10:09:25;;;;;;;27.48;23.63;;;20.20;99.90;;;;;;5050337;28;20120;-53
2022/09/10 10:11:56;;;;;;;23.35;18.70;;;20.50;99.90;;;;;;5055291;28;20020;-53
2022/09/10 10:14:34;;;;;;;22.33;19.42;;;20.30;99.90;;;;;;5056741;28;20048;-53
2022/09/10 10:17:00;;;;;;;21.67;17.90;;;19.90;99.90;;;;;;5052679;28;20079;-53
2022/09/10 10:19:35;;;;;;;18.15;14.68;;;20.20;99.90;;;;;;5048401;28;20085;-53
2022/09/10 10:22:13;;;;;;;18.08;12.93;;;20.60;99.90;;;;;;5045814;28;20013;-53
2022/09/10 10:24:44;;;;;;;17.58;13.48;;;20.70;99.90;;;;;;5064239;28;20353;-53
2022/09/10 10:27:37;;;;;;;13.35;11.93;;;20.40;99.90;;;;;;5065343;28;20071;-53
2022/09/10 10:30:21;;;;;;;14.02;9.93;;;20.30;99.90;;;;;;5057612;28;20067;-53
2022/09/10 10:32:57;;;;;;;11.55;9.00;;;20.40;99.90;;;;;;5041737;28;20025;-53
2022/09/10 10:36:05;;;;;;;11.48;7.85;;;20.30;99.90;;;;;;5049639;28;20034;-53
2022/09/10 10:38:36;;;;;;;11.10;8.20;;;20.30;99.90;;;;;;5053635;28;20033;-53
2022/09/10 10:41:20;;;;;;;10.50;7.20;;;20.20;99.90;;;;;;5056255;28;20120;-53
2022/09/10 10:44:25;;;;;;;8.43;6.30;;;20.20;99.90;;;;;;5058163;28;20184;-53
2022/09/10 10:47:06;;;;;;;13.05;7.32;;;20.30;99.90;;;;;;5057159;28;20051;-52
2022/09/10 10:49:56;;;;;;;9.88;6.78;;;20.60;99.90;;;;;;5048652;28;20024;-53
2022/09/10 10:52:28;;;;;;;9.45;7.90;;;20.90;99.90;;;;;;5046146;28;20055;-53
2022/09/10 10:55:16;;;;;;;10.18;7.40;;;21.00;99.90;;;;;;5046553;28;20067;-53
2022/09/10 10:58:09;;;;;;;8.60;6.07;;;21.20;99.90;;;;;;5045681;28;20120;-53
2022/09/10 11:01:14;;;;;;;6.82;4.53;;;21.20;99.90;;;;;;5051847;28;20508;-53
2022/09/10 11:03:45;;;;;;;5.45;3.28;;;21.40;99.90;;;;;;5054002;28;20025;-53
2022/09/10 11:06:17;;;;;;;5.57;3.35;;;21.50;99.90;;;;;;5047095;28;20028;-53
2022/09/10 11:09:07;;;;;;;6.75;4.57;;;21.80;99.90;;;;;;5052260;28;20025;-52
2022/09/10 11:11:43;;;;;;;7.28;4.75;;;21.80;99.90;;;;;;5052935;28;20078;-53
2022/09/10 11:14:20;;;;;;;7.85;3.63;;;21.80;99.90;;;;;;5068168;28;20035;-53
2022/09/10 11:16:53;;;;;;;5.35;3.33;;;21.70;99.90;;;;;;5070985;28;20021;-53
2022/09/10 11:19:46;;;;;;;4.85;3.00;;;21.60;99.90;;;;;;5070861;28;20048;-53
2022/09/10 11:22:32;;;;;;;5.75;2.50;;;21.50;99.90;;;;;;5063443;28;20120;-53
2022/09/10 11:25:03;;;;;;;4.63;2.67;;;21.40;99.90;;;;;;5061597;28;20024;-53
2022/09/10 11:27:43;;;;;;;4.72;3.03;;;21.30;99.90;;;;;;5040574;28;20470;-53
2022/09/10 11:30:15;;;;;;;5.13;2.90;;;21.20;99.90;;;;;;5059764;28;20072;-53
2022/09/10 11:33:10;;;;;;;3.75;2.42;;;21.30;99.90;;;;;;5060970;28;20025;-54
2022/09/10 11:35:47;;;;;;;6.07;3.22;;;21.70;99.90;;;;;;5059227;28;20021;-55
2022/09/10 11:38:23;;;;;;;15.07;4.45;;;21.30;99.90;;;;;;5057188;28;20532;-56
2022/09/10 11:40:51;;;;;;;4.60;2.22;;;21.00;99.90;;;;;;5054672;28;20021;-55
2022/09/10 11:43:36;;;;;;;3.30;2.10;;;21.30;99.90;;;;;;5057683;28;20150;-56
2022/09/10 11:46:12;;;;;;;4.25;1.92;;;21.40;99.90;;;;;;5059990;28;20023;-56
2022/09/10 11:49:05;;;;;;;3.88;1.80;;;21.60;99.90;;;;;;5059757;28;20388;-55
2022/09/10 11:51:35;;;;;;;3.95;2.30;;;21.70;99.90;;;;;;5059225;28;20029;-55
2022/09/10 11:54:03;;;;;;;6.00;2.33;;;21.70;99.90;;;;;;5059068;28;20031;-56
2022/09/10 11:56:51;;;;;;;4.32;2.55;;;21.70;99.90;;;;;;5059766;28;20028;-53
2022/09/10 11:59:17;;;;;;;9.80;5.90;;;21.60;99.90;;;;;;5061100;28;20045;-53
2022/09/10 12:02:15;;;;;;;3.55;2.58;;;21.40;99.90;;;;;;5058191;28;20460;-53
2022/09/10 12:04:43;;;;;;;2.00;1.70;;;21.40;99.90;;;;;;5047598;28;20029;-53
2022/09/10 12:07:39;;;;;;;2.20;2.00;;;21.30;99.90;;;;;;5057718;28;20035;-53
2022/09/10 12:10:31;;;;;;;3.67;1.98;;;21.20;99.90;;;;;;5058212;28;20029;-53
2022/09/10 12:12:57;;;;;;;4.40;2.38;;;21.10;99.90;;;;;;5055491;28;20489;-53
2022/09/10 12:15:35;;;;;;;3.30;2.05;;;21.00;99.90;;;;;;5058146;28;20039;-53
2022/09/10 12:18:21;;;;;;;3.05;1.70;;;21.00;99.90;;;;;;5039841;28;20490;-53
2022/09/10 12:20:55;;;;;;;4.05;1.60;;;21.10;99.90;;;;;;5059510;28;20050;-53
2022/09/10 12:23:40;;;;;;;6.00;2.15;;;21.30;99.90;;;;;;5053597;28;20032;-53
2022/09/10 12:26:18;;;;;;;2.30;1.65;;;21.60;99.90;;;;;;5057029;28;20032;-53
2022/09/10 12:28:48;;;;;;;4.50;1.63;;;21.60;99.90;;;;;;5057171;28;20063;-52
2022/09/10 12:31:20;;;;;;;3.85;2.13;;;21.80;99.90;;;;;;5049214;28;20056;-53
2022/09/10 12:33:46;;;;;;;4.82;2.50;;;22.10;99.90;;;;;;5049410;28;20028;-52
2022/09/10 12:36:35;;;;;;;3.20;1.58;;;22.40;99.90;;;;;;5031046;28;20367;-53
2022/09/10 12:39:21;;;;;;;2.60;1.83;;;22.70;99.90;;;;;;5052433;28;20041;-53
2022/09/10 12:41:47;;;;;;;3.42;1.75;;;22.70;99.90;;;;;;5052154;28;20029;-52
2022/09/10 12:44:33;;;;;;;3.40;1.50;;;22.70;99.90;;;;;;5057252;28;20032;-53
2022/09/10 12:47:14;;;;;;;3.05;1.70;;;22.70;99.90;;;;;;5060117;28;20023;-53
2022/09/10 12:49:56;;;;;;;3.35;1.90;;;22.60;99.90;;;;;;5060254;28;20491;-53
2022/09/10 12:52:27;;;;;;;3.72;1.88;;;22.50;99.90;;;;;;5063311;28;20377;-52
2022/09/10 12:55:31;;;;;;;5.35;1.98;;;22.50;99.90;;;;;;5069115;28;20026;-52
2022/09/10 12:58:04;;;;;;;3.78;2.55;;;22.60;99.90;;;;;;5039804;28;20036;-52
2022/09/10 13:00:54;;;;;;;3.17;1.88;;;22.70;99.90;;;;;;5063488;28;20502;-52
2022/09/10 13:03:24;;;;;;;3.97;2.55;;;23.00;99.90;;;;;;5069309;28;20365;-52
2022/09/10 13:05:59;;;;;;;4.72;2.70;;;23.10;99.90;;;;;;5051306;28;20032;-53